sensor_id;sensor_type;location;lat;lon;timestamp;pressure;altitude;pressure_sealevel;temperature;humidity
44044;BME280;29709;52.396;16.796;2024-03-07T00:00:28;102757.42;;;3.02;77.72
44044;BME280;29709;52.396;16.796;2024-03-07T00:03:41;102759.22;;;3.03;77.54
44044;BME280;29709;52.396;16.796;2024-03-07T00:13:57;102759.64;;;2.94;77.54
44044;BME280;29709;52.396;16.796;2024-03-07T00:17:19;102757.73;;;2.96;77.21
44044;BME280;29709;52.396;16.796;2024-03-07T00:24:20;102753.78;;;3.03;76.94
44044;BME280;29709;52.396;16.796;2024-03-07T00:27:42;102759.41;;;2.98;76.93
44044;BME280;29709;52.396;16.796;2024-03-07T00:30:58;102759.41;;;2.98;77.07
44044;BME280;29709;52.396;16.796;2024-03-07T00:41:22;102758.87;;;2.90;76.76
44044;BME280;29709;52.396;16.796;2024-03-07T00:44:36;102756.55;;;2.82;76.73
44044;BME280;29709;52.396;16.796;2024-03-07T00:47:49;102759.18;;;2.84;76.74
44044;BME280;29709;52.396;16.796;2024-03-07T00:51:05;102749.28;;;2.83;76.81
44044;BME280;29709;52.396;16.796;2024-03-07T00:54:18;102752.19;;;2.78;76.92
44044;BME280;29709;52.396;16.796;2024-03-07T00:57:31;102745.88;;;2.78;76.74
44044;BME280;29709;52.396;16.796;2024-03-07T01:00:44;102750.35;;;2.79;76.65
44044;BME280;29709;52.396;16.796;2024-03-07T01:03:57;102740.98;;;2.86;76.86
44044;BME280;29709;52.396;16.796;2024-03-07T01:07:11;102743.77;;;2.84;76.41
44044;BME280;29709;52.396;16.796;2024-03-07T01:10:25;102741.13;;;2.83;76.52
44044;BME280;29709;52.396;16.796;2024-03-07T01:13:39;102742.13;;;2.80;76.34
44044;BME280;29709;52.396;16.796;2024-03-07T01:20:21;102750.48;;;2.76;76.32
44044;BME280;29709;52.396;16.796;2024-03-07T01:23:34;102742.36;;;2.76;76.42
44044;BME280;29709;52.396;16.796;2024-03-07T01:26:48;102748.40;;;2.82;76.44
44044;BME280;29709;52.396;16.796;2024-03-07T01:30:02;102742.13;;;2.80;76.05
44044;BME280;29709;52.396;16.796;2024-03-07T01:36:35;102748.31;;;2.84;76.08
44044;BME280;29709;52.396;16.796;2024-03-07T01:39:49;102741.13;;;2.83;76.04
44044;BME280;29709;52.396;16.796;2024-03-07T01:43:03;102752.80;;;2.85;75.97
44044;BME280;29709;52.396;16.796;2024-03-07T01:46:16;102742.01;;;2.83;75.71
44044;BME280;29709;52.396;16.796;2024-03-07T01:49:30;102753.06;;;2.79;75.95
44044;BME280;29709;52.396;16.796;2024-03-07T01:52:45;102752.26;;;2.77;76.10
44044;BME280;29709;52.396;16.796;2024-03-07T01:56:02;102750.57;;;2.74;75.82
44044;BME280;29709;52.396;16.796;2024-03-07T01:59:18;102745.30;;;2.71;76.13
44044;BME280;29709;52.396;16.796;2024-03-07T02:02:34;102747.17;;;2.69;76.25
44044;BME280;29709;52.396;16.796;2024-03-07T02:05:47;102754.58;;;2.66;76.14
44044;BME280;29709;52.396;16.796;2024-03-07T02:09:00;102749.38;;;2.61;76.31
44044;BME280;29709;52.396;16.796;2024-03-07T02:12:19;102758.40;;;2.62;76.55
44044;BME280;29709;52.396;16.796;2024-03-07T02:15:38;102749.56;;;2.56;76.74
44044;BME280;29709;52.396;16.796;2024-03-07T02:18:53;102758.74;;;2.54;76.82
44044;BME280;29709;52.396;16.796;2024-03-07T02:22:07;102752.27;;;2.56;76.98
44044;BME280;29709;52.396;16.796;2024-03-07T02:25:22;102757.77;;;2.55;76.66
44044;BME280;29709;52.396;16.796;2024-03-07T02:28:35;102752.27;;;2.56;76.71
44044;BME280;29709;52.396;16.796;2024-03-07T02:31:51;102753.08;;;2.58;76.81
44044;BME280;29709;52.396;16.796;2024-03-07T02:35:08;102755.95;;;2.55;76.32
44044;BME280;29709;52.396;16.796;2024-03-07T02:41:44;102756.18;;;2.51;76.66
44044;BME280;29709;52.396;16.796;2024-03-07T02:44:57;102760.09;;;2.44;76.94
44044;BME280;29709;52.396;16.796;2024-03-07T02:48:11;102756.51;;;2.43;76.97
44044;BME280;29709;52.396;16.796;2024-03-07T02:51:24;102755.73;;;2.40;76.97
44044;BME280;29709;52.396;16.796;2024-03-07T02:54:37;102758.66;;;2.35;77.34
44044;BME280;29709;52.396;16.796;2024-03-07T02:57:51;102748.98;;;2.29;77.32
44044;BME280;29709;52.396;16.796;2024-03-07T03:01:05;102752.58;;;2.30;77.50
44044;BME280;29709;52.396;16.796;2024-03-07T03:04:18;102745.25;;;2.32;77.32
44044;BME280;29709;52.396;16.796;2024-03-07T03:07:32;102754.19;;;2.34;77.24
44044;BME280;29709;52.396;16.796;2024-03-07T03:10:47;102752.43;;;2.33;77.39
44044;BME280;29709;52.396;16.796;2024-03-07T03:14:00;102754.42;;;2.29;77.11
44044;BME280;29709;52.396;16.796;2024-03-07T03:17:15;102754.84;;;2.19;77.44
44044;BME280;29709;52.396;16.796;2024-03-07T03:20:28;102761.44;;;2.13;77.93
44044;BME280;29709;52.396;16.796;2024-03-07T03:23:51;102758.87;;;2.10;77.64
44044;BME280;29709;52.396;16.796;2024-03-07T03:27:07;102765.49;;;2.03;77.82
44044;BME280;29709;52.396;16.796;2024-03-07T03:30:21;102764.78;;;1.98;78.26
44044;BME280;29709;52.396;16.796;2024-03-07T03:33:34;102760.59;;;1.91;78.07
44044;BME280;29709;52.396;16.796;2024-03-07T03:36:48;102758.05;;;1.86;78.50
44044;BME280;29709;52.396;16.796;2024-03-07T03:46:47;102757.33;;;1.61;78.83
44044;BME280;29709;52.396;16.796;2024-03-07T03:50:06;102760.85;;;1.63;78.87
44044;BME280;29709;52.396;16.796;2024-03-07T03:53:20;102757.40;;;1.59;78.99
44044;BME280;29709;52.396;16.796;2024-03-07T03:56:33;102754.75;;;1.58;78.75
44044;BME280;29709;52.396;16.796;2024-03-07T03:59:46;102751.27;;;1.54;78.67
44044;BME280;29709;52.396;16.796;2024-03-07T04:02:59;102750.59;;;1.49;79.09
44044;BME280;29709;52.396;16.796;2024-03-07T04:06:13;102760.64;;;1.45;79.08
44044;BME280;29709;52.396;16.796;2024-03-07T04:09:26;102767.95;;;1.43;79.18
44044;BME280;29709;52.396;16.796;2024-03-07T04:12:41;102764.50;;;1.40;79.24
44044;BME280;29709;52.396;16.796;2024-03-07T04:15:54;102762.87;;;1.36;79.10
44044;BME280;29709;52.396;16.796;2024-03-07T04:19:07;102765.75;;;1.31;79.28
44044;BME280;29709;52.396;16.796;2024-03-07T04:22:23;102757.81;;;1.27;79.44
44044;BME280;29709;52.396;16.796;2024-03-07T04:25:36;102764.21;;;1.24;79.49
44044;BME280;29709;52.396;16.796;2024-03-07T04:28:49;102765.28;;;1.20;79.36
44044;BME280;29709;52.396;16.796;2024-03-07T04:32:03;102763.69;;;1.14;79.49
44044;BME280;29709;52.396;16.796;2024-03-07T04:35:17;102755.98;;;1.04;79.93
44044;BME280;29709;52.396;16.796;2024-03-07T04:38:30;102757.77;;;1.05;79.80
44044;BME280;29709;52.396;16.796;2024-03-07T04:41:44;102767.81;;;1.01;79.95
44044;BME280;29709;52.396;16.796;2024-03-07T04:44:57;102756.18;;;0.99;80.09
44044;BME280;29709;52.396;16.796;2024-03-07T04:48:10;102765.30;;;0.97;79.93
44044;BME280;29709;52.396;16.796;2024-03-07T04:51:23;102767.41;;;0.89;80.23
44044;BME280;29709;52.396;16.796;2024-03-07T04:54:36;102755.51;;;0.93;80.14
44044;BME280;29709;52.396;16.796;2024-03-07T04:57:49;102759.35;;;0.87;80.06
44044;BME280;29709;52.396;16.796;2024-03-07T05:01:04;102763.10;;;0.83;80.35
44044;BME280;29709;52.396;16.796;2024-03-07T05:04:18;102767.62;;;0.82;80.44
44044;BME280;29709;52.396;16.796;2024-03-07T05:07:31;102771.19;;;0.84;80.25
44044;BME280;29709;52.396;16.796;2024-03-07T05:10:44;102768.51;;;0.83;80.62
44044;BME280;29709;52.396;16.796;2024-03-07T05:13:58;102773.89;;;0.84;80.04
44044;BME280;29709;52.396;16.796;2024-03-07T05:17:12;102768.29;;;0.89;80.18
44044;BME280;29709;52.396;16.796;2024-03-07T05:20:25;102768.34;;;0.88;80.05
44044;BME280;29709;52.396;16.796;2024-03-07T05:23:41;102766.59;;;0.86;80.02
44044;BME280;29709;52.396;16.796;2024-03-07T05:26:54;102769.23;;;0.88;80.19
44044;BME280;29709;52.396;16.796;2024-03-07T05:30:08;102776.54;;;0.86;79.81
44044;BME280;29709;52.396;16.796;2024-03-07T05:33:26;102781.07;;;0.85;80.26
44044;BME280;29709;52.396;16.796;2024-03-07T05:36:41;102783.66;;;0.89;80.10
44044;BME280;29709;52.396;16.796;2024-03-07T05:39:59;102790.02;;;0.88;79.79
44044;BME280;29709;52.396;16.796;2024-03-07T05:43:12;102790.14;;;0.84;79.96
44044;BME280;29709;52.396;16.796;2024-03-07T05:46:26;102794.70;;;0.82;80.43
44044;BME280;29709;52.396;16.796;2024-03-07T05:49:39;102787.43;;;0.84;80.21
44044;BME280;29709;52.396;16.796;2024-03-07T05:52:53;102802.66;;;0.87;80.16
44044;BME280;29709;52.396;16.796;2024-03-07T05:56:06;102803.55;;;0.88;80.18
44044;BME280;29709;52.396;16.796;2024-03-07T05:59:20;102807.07;;;0.90;80.19
44044;BME280;29709;52.396;16.796;2024-03-07T06:02:34;102809.66;;;0.93;80.18
44044;BME280;29709;52.396;16.796;2024-03-07T06:05:47;102800.22;;;1.04;80.06
44044;BME280;29709;52.396;16.796;2024-03-07T06:09:05;102796.97;;;1.18;79.74
44044;BME280;29709;52.396;16.796;2024-03-07T06:12:21;102810.31;;;1.23;79.57
44044;BME280;29709;52.396;16.796;2024-03-07T06:15:35;102813.39;;;1.37;78.98
44044;BME280;29709;52.396;16.796;2024-03-07T06:18:50;102813.66;;;1.53;78.74
44044;BME280;29709;52.396;16.796;2024-03-07T06:22:05;102812.17;;;1.67;78.35
44044;BME280;29709;52.396;16.796;2024-03-07T06:25:23;102810.66;;;1.82;77.89
44044;BME280;29709;52.396;16.796;2024-03-07T06:28:47;102805.73;;;1.92;77.23
44044;BME280;29709;52.396;16.796;2024-03-07T06:32:00;102817.70;;;2.08;76.79
44044;BME280;29709;52.396;16.796;2024-03-07T06:35:13;102826.22;;;2.21;76.46
44044;BME280;29709;52.396;16.796;2024-03-07T06:38:26;102821.01;;;2.37;75.92
44044;BME280;29709;52.396;16.796;2024-03-07T06:41:39;102824.20;;;2.46;75.84
44044;BME280;29709;52.396;16.796;2024-03-07T06:44:53;102829.23;;;2.55;74.77
44044;BME280;29709;52.396;16.796;2024-03-07T06:48:06;102829.80;;;2.64;75.19
44044;BME280;29709;52.396;16.796;2024-03-07T06:51:20;102834.12;;;2.68;74.25
44044;BME280;29709;52.396;16.796;2024-03-07T06:54:34;102835.14;;;2.85;74.02
44044;BME280;29709;52.396;16.796;2024-03-07T06:57:48;102839.13;;;2.97;73.42
44044;BME280;29709;52.396;16.796;2024-03-07T07:01:02;102837.04;;;3.04;73.39
44044;BME280;29709;52.396;16.796;2024-03-07T07:04:22;102839.52;;;3.08;71.96
44044;BME280;29709;52.396;16.796;2024-03-07T07:07:49;102841.82;;;3.17;72.41
44044;BME280;29709;52.396;16.796;2024-03-07T07:10:59;102842.73;;;3.37;72.17
44044;BME280;29709;52.396;16.796;2024-03-07T07:14:12;102846.63;;;3.50;71.10
44044;BME280;29709;52.396;16.796;2024-03-07T07:17:25;102845.24;;;3.60;71.06
44044;BME280;29709;52.396;16.796;2024-03-07T07:20:42;102847.95;;;3.79;71.18
44044;BME280;29709;52.396;16.796;2024-03-07T07:23:55;102842.36;;;3.82;69.79
44044;BME280;29709;52.396;16.796;2024-03-07T07:27:08;102845.96;;;3.83;69.22
44044;BME280;29709;52.396;16.796;2024-03-07T07:30:23;102845.59;;;3.90;69.52
44044;BME280;29709;52.396;16.796;2024-03-07T07:33:36;102847.11;;;3.96;68.56
44044;BME280;29709;52.396;16.796;2024-03-07T07:36:49;102840.92;;;4.11;68.61
44044;BME280;29709;52.396;16.796;2024-03-07T07:40:03;102837.07;;;4.15;68.75
44044;BME280;29709;52.396;16.796;2024-03-07T07:43:20;102840.30;;;4.23;66.63
44044;BME280;29709;52.396;16.796;2024-03-07T07:46:34;102837.91;;;4.17;66.53
44044;BME280;29709;52.396;16.796;2024-03-07T07:49:47;102845.12;;;4.18;65.94
44044;BME280;29709;52.396;16.796;2024-03-07T07:53:01;102841.52;;;4.35;64.85
44044;BME280;29709;52.396;16.796;2024-03-07T07:56:21;102843.05;;;4.41;66.04
44044;BME280;29709;52.396;16.796;2024-03-07T07:59:35;102834.73;;;4.61;65.87
44044;BME280;29709;52.396;16.796;2024-03-07T08:02:56;102847.45;;;4.78;64.96
44044;BME280;29709;52.396;16.796;2024-03-07T08:06:10;102831.99;;;4.78;64.42
44044;BME280;29709;52.396;16.796;2024-03-07T08:09:23;102839.84;;;4.84;62.99
44044;BME280;29709;52.396;16.796;2024-03-07T08:12:36;102843.45;;;4.85;62.94
44044;BME280;29709;52.396;16.796;2024-03-07T08:15:50;102841.03;;;4.96;63.12
44044;BME280;29709;52.396;16.796;2024-03-07T08:19:03;102837.63;;;5.08;62.79
44044;BME280;29709;52.396;16.796;2024-03-07T08:22:16;102843.68;;;5.31;60.30
44044;BME280;29709;52.396;16.796;2024-03-07T08:25:30;102844.32;;;5.36;60.65
44044;BME280;29709;52.396;16.796;2024-03-07T08:28:43;102840.36;;;5.41;60.45
44044;BME280;29709;52.396;16.796;2024-03-07T08:31:57;102839.94;;;5.49;60.28
44044;BME280;29709;52.396;16.796;2024-03-07T08:35:10;102842.25;;;5.57;59.17
44044;BME280;29709;52.396;16.796;2024-03-07T08:38:25;102836.00;;;5.70;59.54
44044;BME280;29709;52.396;16.796;2024-03-07T08:41:38;102848.94;;;5.83;58.40
44044;BME280;29709;52.396;16.796;2024-03-07T08:44:57;102840.75;;;5.83;56.51
44044;BME280;29709;52.396;16.796;2024-03-07T08:48:11;102843.77;;;5.94;56.64
44044;BME280;29709;52.396;16.796;2024-03-07T08:51:27;102841.67;;;5.99;57.44
44044;BME280;29709;52.396;16.796;2024-03-07T08:54:40;102831.82;;;5.96;54.38
44044;BME280;29709;52.396;16.796;2024-03-07T08:57:54;102835.14;;;6.01;55.88
44044;BME280;29709;52.396;16.796;2024-03-07T09:01:07;102838.04;;;6.14;55.11
44044;BME280;29709;52.396;16.796;2024-03-07T09:04:20;102832.23;;;6.20;52.39
44044;BME280;29709;52.396;16.796;2024-03-07T09:07:35;102835.30;;;6.14;53.12
44044;BME280;29709;52.396;16.796;2024-03-07T09:10:48;102841.82;;;6.27;52.77
44044;BME280;29709;52.396;16.796;2024-03-07T09:14:02;102840.22;;;6.39;52.60
44044;BME280;29709;52.396;16.796;2024-03-07T09:17:22;102834.01;;;6.51;51.97
44044;BME280;29709;52.396;16.796;2024-03-07T09:20:35;102834.75;;;6.69;53.00
44044;BME280;29709;52.396;16.796;2024-03-07T09:23:50;102832.12;;;6.68;51.27
44044;BME280;29709;52.396;16.796;2024-03-07T09:27:04;102832.58;;;6.60;51.94
44044;BME280;29709;52.396;16.796;2024-03-07T09:30:18;102825.48;;;6.72;52.16
44044;BME280;29709;52.396;16.796;2024-03-07T09:33:40;102829.77;;;6.76;52.52
44044;BME280;29709;52.396;16.796;2024-03-07T09:36:53;102825.91;;;6.80;51.45
44044;BME280;29709;52.396;16.796;2024-03-07T09:40:08;102837.05;;;7.05;51.75
44044;BME280;29709;52.396;16.796;2024-03-07T09:43:28;102832.29;;;7.09;51.03
44044;BME280;29709;52.396;16.796;2024-03-07T09:46:46;102829.95;;;7.03;50.30
44044;BME280;29709;52.396;16.796;2024-03-07T09:49:59;102827.41;;;7.00;50.53
44044;BME280;29709;52.396;16.796;2024-03-07T09:53:13;102833.74;;;7.00;51.26
44044;BME280;29709;52.396;16.796;2024-03-07T09:56:31;102823.48;;;7.18;50.65
44044;BME280;29709;52.396;16.796;2024-03-07T09:59:51;102830.06;;;7.30;50.30
44044;BME280;29709;52.396;16.796;2024-03-07T10:03:12;102816.26;;;7.45;50.77
44044;BME280;29709;52.396;16.796;2024-03-07T10:06:28;102817.12;;;7.60;51.18
44044;BME280;29709;52.396;16.796;2024-03-07T10:09:44;102823.39;;;7.62;48.68
44044;BME280;29709;52.396;16.796;2024-03-07T10:12:57;102813.63;;;7.44;48.89
44044;BME280;29709;52.396;16.796;2024-03-07T10:16:11;102808.55;;;7.38;48.84
44044;BME280;29709;52.396;16.796;2024-03-07T10:19:28;102800.44;;;7.36;48.87
44044;BME280;29709;52.396;16.796;2024-03-07T10:22:41;102806.48;;;7.56;49.41
44044;BME280;29709;52.396;16.796;2024-03-07T10:25:55;102808.41;;;7.68;50.16
44044;BME280;29709;52.396;16.796;2024-03-07T10:29:09;102797.24;;;7.85;50.29
44044;BME280;29709;52.396;16.796;2024-03-07T10:32:23;102800.35;;;7.93;49.26
44044;BME280;29709;52.396;16.796;2024-03-07T10:35:38;102805.23;;;7.88;48.64
44044;BME280;29709;52.396;16.796;2024-03-07T10:38:51;102801.45;;;7.76;48.21
44044;BME280;29709;52.396;16.796;2024-03-07T10:42:13;102807.53;;;7.67;48.19
44044;BME280;29709;52.396;16.796;2024-03-07T10:45:29;102801.00;;;7.56;47.96
44044;BME280;29709;52.396;16.796;2024-03-07T10:48:46;102795.05;;;7.63;49.02
44044;BME280;29709;52.396;16.796;2024-03-07T10:52:13;102790.45;;;7.91;48.68
44044;BME280;29709;52.396;16.796;2024-03-07T10:55:49;102794.34;;;8.01;48.51
44044;BME280;29709;52.396;16.796;2024-03-07T10:59:07;102790.45;;;7.91;47.59
44044;BME280;29709;52.396;16.796;2024-03-07T11:02:32;102787.38;;;7.83;47.48
44044;BME280;29709;52.396;16.796;2024-03-07T11:05:47;102790.30;;;7.79;48.19
44044;BME280;29709;52.396;16.796;2024-03-07T11:09:03;102788.55;;;7.78;47.56
44044;BME280;29709;52.396;16.796;2024-03-07T11:12:26;102778.58;;;7.77;48.30
44044;BME280;29709;52.396;16.796;2024-03-07T11:15:43;102787.32;;;7.97;47.63
44044;BME280;29709;52.396;16.796;2024-03-07T11:22:29;102784.11;;;7.90;46.94
44044;BME280;29709;52.396;16.796;2024-03-07T11:25:42;102778.73;;;7.89;47.05
44044;BME280;29709;52.396;16.796;2024-03-07T11:28:56;102783.23;;;7.90;47.04
44044;BME280;29709;52.396;16.796;2024-03-07T11:32:15;102771.40;;;7.89;47.14
44044;BME280;29709;52.396;16.796;2024-03-07T11:35:33;102767.12;;;7.85;46.42
44044;BME280;29709;52.396;16.796;2024-03-07T11:38:48;102755.95;;;7.88;46.35
44044;BME280;29709;52.396;16.796;2024-03-07T11:42:02;102765.92;;;7.89;46.26
44044;BME280;29709;52.396;16.796;2024-03-07T11:45:20;102759.16;;;7.95;46.39
44044;BME280;29709;52.396;16.796;2024-03-07T11:48:46;102756.18;;;7.85;46.61
44044;BME280;29709;52.396;16.796;2024-03-07T11:52:01;102747.02;;;7.99;47.19
44044;BME280;29709;52.396;16.796;2024-03-07T11:55:26;102751.02;;;8.20;46.98
44044;BME280;29709;52.396;16.796;2024-03-07T11:58:41;102757.02;;;8.39;46.45
44044;BME280;29709;52.396;16.796;2024-03-07T12:01:54;102742.80;;;8.47;46.71
44044;BME280;29709;52.396;16.796;2024-03-07T12:05:10;102746.44;;;8.73;46.84
44044;BME280;29709;52.396;16.796;2024-03-07T12:08:23;102744.68;;;8.72;44.71
44044;BME280;29709;52.396;16.796;2024-03-07T12:11:36;102738.32;;;8.46;45.17
44044;BME280;29709;52.396;16.796;2024-03-07T12:14:50;102741.16;;;8.45;45.48
44044;BME280;29709;52.396;16.796;2024-03-07T12:18:07;102735.00;;;8.41;45.43
44044;BME280;29709;52.396;16.796;2024-03-07T12:21:22;102737.85;;;8.39;45.22
44044;BME280;29709;52.396;16.796;2024-03-07T12:24:35;102739.72;;;8.39;44.88
44044;BME280;29709;52.396;16.796;2024-03-07T12:28:03;102732.95;;;8.45;44.48
44044;BME280;29709;52.396;16.796;2024-03-07T12:31:19;102734.70;;;8.46;44.80
44044;BME280;29709;52.396;16.796;2024-03-07T12:34:37;102728.34;;;8.45;45.43
44044;BME280;29709;52.396;16.796;2024-03-07T12:37:54;102723.05;;;8.42;44.31
44044;BME280;29709;52.396;16.796;2024-03-07T12:41:10;102720.31;;;8.42;45.09
44044;BME280;29709;52.396;16.796;2024-03-07T12:44:26;102733.13;;;8.42;44.73
44044;BME280;29709;52.396;16.796;2024-03-07T12:47:40;102722.41;;;8.51;45.08
44044;BME280;29709;52.396;16.796;2024-03-07T12:50:53;102716.62;;;8.56;44.87
44044;BME280;29709;52.396;16.796;2024-03-07T12:54:07;102720.02;;;8.59;45.04
44044;BME280;29709;52.396;16.796;2024-03-07T12:57:22;102720.77;;;8.61;44.55
44044;BME280;29709;52.396;16.796;2024-03-07T13:00:36;102713.54;;;8.60;44.66
44044;BME280;29709;52.396;16.796;2024-03-07T13:03:49;102712.44;;;8.63;44.76
44044;BME280;29709;52.396;16.796;2024-03-07T13:07:03;102708.48;;;8.54;44.13
44044;BME280;29709;52.396;16.796;2024-03-07T13:10:17;102703.34;;;8.50;44.68
44044;BME280;29709;52.396;16.796;2024-03-07T13:13:33;102708.59;;;8.53;43.97
44044;BME280;29709;52.396;16.796;2024-03-07T13:16:47;102706.20;;;8.48;44.06
44044;BME280;29709;52.396;16.796;2024-03-07T13:20:00;102705.09;;;8.51;44.56
44044;BME280;29709;52.396;16.796;2024-03-07T13:23:13;102697.09;;;8.48;44.43
44044;BME280;29709;52.396;16.796;2024-03-07T13:26:28;102695.23;;;8.48;45.30
44044;BME280;29709;52.396;16.796;2024-03-07T13:29:44;102699.59;;;8.63;45.72
44044;BME280;29709;52.396;16.796;2024-03-07T13:32:59;102700.17;;;8.68;45.66
44044;BME280;29709;52.396;16.796;2024-03-07T13:36:13;102692.17;;;8.65;44.82
44044;BME280;29709;52.396;16.796;2024-03-07T13:39:37;102693.02;;;8.53;45.22
44044;BME280;29709;52.396;16.796;2024-03-07T13:42:54;102690.20;;;8.67;45.34
44044;BME280;29709;52.396;16.796;2024-03-07T13:46:08;102693.58;;;8.71;44.23
44044;BME280;29709;52.396;16.796;2024-03-07T13:49:21;102692.82;;;8.69;45.11
44044;BME280;29709;52.396;16.796;2024-03-07T13:52:39;102696.66;;;8.66;45.17
44044;BME280;29709;52.396;16.796;2024-03-07T14:03:10;102683.62;;;8.57;45.33
44044;BME280;29709;52.396;16.796;2024-03-07T14:06:30;102689.52;;;8.51;45.53
44044;BME280;29709;52.396;16.796;2024-03-07T14:09:59;102687.98;;;8.60;45.42
44044;BME280;29709;52.396;16.796;2024-03-07T14:24:08;102684.59;;;8.69;44.94
44044;BME280;29709;52.396;16.796;2024-03-07T14:27:18;102676.38;;;8.69;45.84
44044;BME280;29709;52.396;16.796;2024-03-07T14:30:49;102683.18;;;8.76;46.24
44044;BME280;29709;52.396;16.796;2024-03-07T14:34:13;102689.21;;;8.68;45.90
44044;BME280;29709;52.396;16.796;2024-03-07T14:37:45;102684.59;;;8.69;46.60
44044;BME280;29709;52.396;16.796;2024-03-07T14:44:42;102682.52;;;8.60;46.33
44044;BME280;29709;52.396;16.796;2024-03-07T14:48:01;102673.95;;;8.64;46.75
44044;BME280;29709;52.396;16.796;2024-03-07T14:51:17;102666.41;;;8.68;46.18
44044;BME280;29709;52.396;16.796;2024-03-07T14:54:30;102682.16;;;8.64;45.93
44044;BME280;29709;52.396;16.796;2024-03-07T14:57:45;102673.74;;;8.67;46.68
44044;BME280;29709;52.396;16.796;2024-03-07T15:04:42;102669.91;;;8.57;46.18
44044;BME280;29709;52.396;16.796;2024-03-07T15:07:56;102662.12;;;8.51;46.42
44044;BME280;29709;52.396;16.796;2024-03-07T15:14:33;102653.78;;;8.40;46.90
44044;BME280;29709;52.396;16.796;2024-03-07T15:17:47;102662.23;;;8.37;46.87
44044;BME280;29709;52.396;16.796;2024-03-07T15:21:00;102659.98;;;8.29;46.84
44044;BME280;29709;52.396;16.796;2024-03-07T15:24:13;102663.95;;;8.25;47.10
44044;BME280;29709;52.396;16.796;2024-03-07T15:27:29;102654.16;;;8.21;47.60
44044;BME280;29709;52.396;16.796;2024-03-07T15:30:42;102649.68;;;8.20;47.56
44044;BME280;29709;52.396;16.796;2024-03-07T15:33:56;102647.48;;;8.13;47.85
44044;BME280;29709;52.396;16.796;2024-03-07T15:37:09;102649.79;;;8.19;47.52
44044;BME280;29709;52.396;16.796;2024-03-07T15:40:23;102645.64;;;8.13;47.78
44044;BME280;29709;52.396;16.796;2024-03-07T15:43:41;102652.95;;;8.13;48.16
44044;BME280;29709;52.396;16.796;2024-03-07T15:46:58;102650.44;;;8.22;47.93
44044;BME280;29709;52.396;16.796;2024-03-07T15:50:11;102651.88;;;8.15;47.97
44044;BME280;29709;52.396;16.796;2024-03-07T15:53:25;102652.95;;;8.13;47.30
44044;BME280;29709;52.396;16.796;2024-03-07T15:56:38;102654.51;;;8.04;48.00
44044;BME280;29709;52.396;16.796;2024-03-07T15:59:52;102656.88;;;7.96;47.72
44044;BME280;29709;52.396;16.796;2024-03-07T16:03:07;102648.89;;;7.93;48.47
44044;BME280;29709;52.396;16.796;2024-03-07T16:06:23;102648.33;;;8.00;47.88
44044;BME280;29709;52.396;16.796;2024-03-07T16:09:36;102646.47;;;8.01;48.07
44044;BME280;29709;52.396;16.796;2024-03-07T16:12:50;102651.62;;;7.93;48.27
44044;BME280;29709;52.396;16.796;2024-03-07T16:16:04;102649.07;;;7.90;48.87
44044;BME280;29709;52.396;16.796;2024-03-07T16:19:17;102651.27;;;7.85;49.02
44044;BME280;29709;52.396;16.796;2024-03-07T16:22:34;102651.56;;;7.80;48.78
44044;BME280;29709;52.396;16.796;2024-03-07T16:25:47;102649.17;;;7.75;49.06
44044;BME280;29709;52.396;16.796;2024-03-07T16:32:52;102649.89;;;7.65;49.52
44044;BME280;29709;52.396;16.796;2024-03-07T16:36:12;102646.39;;;7.63;49.89
44044;BME280;29709;52.396;16.796;2024-03-07T16:39:27;102653.14;;;7.57;49.17
44044;BME280;29709;52.396;16.796;2024-03-07T16:42:45;102654.34;;;7.53;49.51
44044;BME280;29709;52.396;16.796;2024-03-07T16:46:04;102648.66;;;7.56;49.75
44044;BME280;29709;52.396;16.796;2024-03-07T16:49:17;102649.63;;;7.55;49.35
44044;BME280;29709;52.396;16.796;2024-03-07T16:52:30;102656.31;;;7.51;49.66
44044;BME280;29709;52.396;16.796;2024-03-07T16:55:43;102652.98;;;7.46;50.31
44044;BME280;29709;52.396;16.796;2024-03-07T16:58:58;102652.33;;;7.42;50.00
44044;BME280;29709;52.396;16.796;2024-03-07T17:02:13;102652.83;;;7.35;50.46
44044;BME280;29709;52.396;16.796;2024-03-07T17:05:31;102647.87;;;7.27;50.81
44044;BME280;29709;52.396;16.796;2024-03-07T17:08:47;102652.67;;;7.23;50.43
44044;BME280;29709;52.396;16.796;2024-03-07T17:12:00;102652.09;;;7.18;50.51
44044;BME280;29709;52.396;16.796;2024-03-07T17:15:18;102655.03;;;7.15;50.85
44044;BME280;29709;52.396;16.796;2024-03-07T17:18:31;102652.78;;;7.08;50.91
44044;BME280;29709;52.396;16.796;2024-03-07T17:21:46;102655.62;;;7.06;51.89
44044;BME280;29709;52.396;16.796;2024-03-07T17:24:59;102657.02;;;6.99;51.49
44044;BME280;29709;52.396;16.796;2024-03-07T17:28:13;102666.59;;;6.92;51.92
44044;BME280;29709;52.396;16.796;2024-03-07T17:35:14;102671.48;;;6.58;54.32
44044;BME280;29709;52.396;16.796;2024-03-07T17:38:27;102658.61;;;6.46;53.87
44044;BME280;29709;52.396;16.796;2024-03-07T17:41:41;102666.49;;;6.36;54.26
44044;BME280;29709;52.396;16.796;2024-03-07T17:44:55;102676.04;;;6.29;53.84
44044;BME280;29709;52.396;16.796;2024-03-07T17:48:08;102673.57;;;6.25;54.69
44044;BME280;29709;52.396;16.796;2024-03-07T17:51:23;102670.46;;;6.17;55.36
44044;BME280;29709;52.396;16.796;2024-03-07T17:54:42;102674.20;;;6.00;55.73
44044;BME280;29709;52.396;16.796;2024-03-07T17:58:03;102672.45;;;5.83;55.84
44044;BME280;29709;52.396;16.796;2024-03-07T18:01:19;102670.12;;;5.61;55.75
44044;BME280;29709;52.396;16.796;2024-03-07T18:04:34;102675.80;;;5.42;58.06
44044;BME280;29709;52.396;16.796;2024-03-07T18:07:48;102677.21;;;5.34;57.01
44044;BME280;29709;52.396;16.796;2024-03-07T18:14:46;102675.26;;;5.20;57.24
44044;BME280;29709;52.396;16.796;2024-03-07T18:18:04;102668.23;;;5.16;57.19